Terminal Aerodrome Forecast
Issued by NWS

Home | Current Version | Previous Version | Text Only | Print | Product List | Glossary On
Versions: 1 2 3 4 5 6 7 8 9 10 11 12 13 14 15 16
000
FTUS43 KIND 311100
TAFBMG
TAF
KBMG 311130Z 3112/0112 20005KT P6SM BKN250
     FM311600 22010KT P6SM SCT090 BKN200
     FM312100 22010KT P6SM SCT030 OVC080
     FM010000 21006KT 5SM -RA SCT025 OVC050
     FM010300 17005KT 3SM -RASN OVC020
      AMD LTD TO CLD VIS AND WIND TIL 311400=

USA.gov is the U.S. government's official web portal to all federal, state and local government web resources and services.